Time;durP1;ratioP1;P1;durP2;ratioP2;P2;SDS_P1;SDS_P2;PMS_P1;PMS_P2;Temp;Humidity;BMP_temperature;BMP_pressure;BME280_temperature;BME280_humidity;BME280_pressure;Samples;Min_cycle;Max_cycle;Signal;HPM_P1;HPM_P2
2022/06/05 00:02:07;;;;;;;;;;;12.50;99.90;;;;;;5111824;28;19927;-66
2022/06/05 00:04:42;;;;;;;;;;;12.40;99.90;;;;;;5111883;28;19923;-66
2022/06/05 00:07:10;;;;;;;;;;;12.40;99.90;;;;;;5111788;28;19919;-66
2022/06/05 00:09:40;;;;;;;;;;;12.30;99.90;;;;;;5110308;28;20342;-66
2022/06/05 00:12:07;;;;;;;;;;;12.30;99.90;;;;;;5110546;28;19926;-66
2022/06/05 00:14:33;;;;;;;;;;;12.30;99.90;;;;;;5111529;28;19926;-66
2022/06/05 00:16:59;;;;;;;;;;;12.30;99.90;;;;;;5110567;28;20021;-66
2022/06/05 00:19:24;;;;;;;;;;;12.30;99.90;;;;;;5111282;28;19979;-66
2022/06/05 00:21:50;;;;;;;;;;;12.30;99.90;;;;;;5111522;28;20364;-66
2022/06/05 00:24:15;;;;;;;;;;;12.30;99.90;;;;;;5111383;28;19926;-66
2022/06/05 00:26:48;;;;;;;;;;;12.30;99.90;;;;;;5110169;28;19920;-66
2022/06/05 00:29:33;;;;;;;;;;;12.20;99.90;;;;;;5111353;28;19924;-67
2022/06/05 00:32:18;;;;;;;;;;;12.30;99.90;;;;;;5111345;28;19927;-66
2022/06/05 00:34:43;;;;;;;;;;;12.20;99.90;;;;;;5111286;28;19973;-66
2022/06/05 00:37:18;;;;;;;;;;;12.20;99.90;;;;;;5111639;28;20340;-67
2022/06/05 00:39:46;;;;;;;;;;;12.20;99.90;;;;;;5111183;28;20384;-67
2022/06/05 00:42:16;;;;;;;;;;;12.20;99.90;;;;;;5111407;28;20001;-66
2022/06/05 00:44:50;;;;;;;;;;;12.20;99.90;;;;;;5111468;28;19927;-66
2022/06/05 00:47:19;;;;;;;;;;;12.20;99.90;;;;;;5111386;28;19924;-66
2022/06/05 00:49:47;;;;;;;;;;;12.20;99.90;;;;;;5111222;28;20326;-66
2022/06/05 00:52:13;;;;;;;;;;;12.20;99.90;;;;;;5111470;28;19919;-66
2022/06/05 00:54:38;;;;;;;;;;;12.10;99.90;;;;;;5111322;28;20048;-67
2022/06/05 00:57:09;;;;;;;;;;;12.10;99.90;;;;;;5111367;28;20002;-67
2022/06/05 00:59:35;;;;;;;;;;;12.10;99.90;;;;;;5110676;28;19928;-67
2022/06/05 01:02:00;;;;;;;;;;;12.10;99.90;;;;;;5111371;28;19988;-67
2022/06/05 01:04:26;;;;;;;;;;;12.10;99.90;;;;;;5111001;28;20435;-66
2022/06/05 01:06:52;;;;;;;;;;;12.10;99.90;;;;;;5112537;28;19924;-67
2022/06/05 01:09:18;;;;;;;;;;;12.10;99.90;;;;;;5114664;28;19920;-66
2022/06/05 01:12:02;;;;;;;;;;;12.10;99.90;;;;;;5114763;28;20718;-66
2022/06/05 01:14:30;;;;;;;;;;;12.20;99.90;;;;;;5114948;28;19980;-66
2022/06/05 01:17:16;;;;;;;;;;;12.10;99.90;;;;;;5114870;28;20002;-66
2022/06/05 01:19:47;;;;;;;;;;;12.10;99.90;;;;;;5114264;28;20398;-66
2022/06/05 01:22:21;;;;;;;;;;;12.10;99.90;;;;;;5114541;28;19965;-66
2022/06/05 01:25:11;;;;;;;;;;;12.10;99.90;;;;;;5114390;28;20415;-66
2022/06/05 01:27:38;;;;;;;;;;;12.10;99.90;;;;;;5114779;28;19923;-66
2022/06/05 01:30:35;;;;;;;;;;;12.10;99.90;;;;;;5114343;28;19924;-66
2022/06/05 01:33:10;;;;;;;;;;;12.10;99.90;;;;;;5031225;28;19921;-66
2022/06/05 01:35:39;;;;;;;;;;;12.10;99.90;;;;;;5031307;28;19921;-66
2022/06/05 01:38:11;;;;;;;;;;;12.10;99.90;;;;;;5031275;28;19922;-66
2022/06/05 01:40:45;;;;;;;;;;;12.10;99.90;;;;;;5030988;28;19929;-66
2022/06/05 01:43:15;;;;;;;;;;;12.10;99.90;;;;;;5031116;28;19928;-66
2022/06/05 01:45:52;;;;;;;;;;;12.10;99.90;;;;;;5031098;28;20008;-66
2022/06/05 01:48:20;;;;;;;;;;;12.10;99.90;;;;;;5014738;28;19921;-67
2022/06/05 01:50:47;;;;;;;;;;;12.10;99.90;;;;;;5030886;28;19928;-66
2022/06/05 01:53:31;;;;;;;;;;;12.00;99.90;;;;;;5030880;28;19967;-66
2022/06/05 01:56:00;;;;;;;;;;;12.00;99.90;;;;;;5030865;28;19932;-66
2022/06/05 01:58:32;;;;;;;;;;;12.00;99.90;;;;;;5030503;28;19929;-66
2022/06/05 02:00:59;;;;;;;;;;;12.00;99.90;;;;;;5030854;28;19929;-66
2022/06/05 02:03:28;;;;;;;;;;;11.90;99.90;;;;;;5031102;28;19958;-66
2022/06/05 02:05:57;;;;;;;;;;;12.00;99.90;;;;;;5030748;28;20446;-66
2022/06/05 02:08:34;;;;;;;;;;;11.90;99.90;;;;;;5037478;28;19921;-66
2022/06/05 02:11:19;;;;;;;;;;;12.00;99.90;;;;;;5113825;27;19919;-67
2022/06/05 02:13:44;;;;;;;;;;;11.90;99.90;;;;;;5113787;28;20083;-66
2022/06/05 02:16:10;;;;;;;;;;;12.00;99.90;;;;;;5113743;28;20033;-66
2022/06/05 02:18:36;;;;;;;;;;;12.00;99.90;;;;;;5113228;28;20489;-66
2022/06/05 02:21:02;;;;;;;;;;;11.90;99.90;;;;;;5111893;28;20006;-66
2022/06/05 02:23:28;;;;;;;;;;;11.90;99.90;;;;;;5113468;28;19919;-66
2022/06/05 02:25:54;;;;;;;;;;;11.90;99.90;;;;;;5113568;28;19923;-66
2022/06/05 02:28:21;;;;;;;;;;;11.80;99.90;;;;;;5113350;28;19920;-66
2022/06/05 02:31:00;;;;;;;;;;;11.90;99.90;;;;;;5113189;28;19976;-66
2022/06/05 02:33:48;;;;;;;;;;;11.90;99.90;;;;;;5113164;28;19920;-66
2022/06/05 02:36:27;;;;;;;;;;;11.90;99.90;;;;;;5113060;28;19930;-66
2022/06/05 02:39:02;;;;;;;;;;;11.80;99.90;;;;;;5111648;28;20003;-66
2022/06/05 02:41:41;;;;;;;;;;;11.80;99.90;;;;;;5113082;28;19927;-66
2022/06/05 02:44:29;;;;;;;;;;;11.80;99.90;;;;;;5111750;28;20010;-66
2022/06/05 02:47:09;;;;;;;;;;;11.80;99.90;;;;;;5113168;28;19931;-66
2022/06/05 02:49:39;;;;;;;;;;;11.90;99.90;;;;;;5112686;28;19923;-66
2022/06/05 02:52:05;;;;;;;;;;;11.90;99.90;;;;;;5112223;28;20392;-66
2022/06/05 02:54:31;;;;;;;;;;;11.90;99.90;;;;;;5110106;28;19926;-66
2022/06/05 02:56:57;;;;;;;;;;;11.90;99.90;;;;;;5110465;28;20007;-66
2022/06/05 02:59:23;;;;;;;;;;;11.80;99.90;;;;;;5110412;28;19927;-66
2022/06/05 03:04:33;;;;;;;;;;;11.80;99.90;;;;;;5110642;28;20399;-66
2022/06/05 03:06:58;;;;;;;;;;;11.80;99.90;;;;;;5111618;28;19919;-66
2022/06/05 03:09:23;;;;;;;;;;;11.80;99.90;;;;;;5110955;28;19931;-67
2022/06/05 03:11:49;;;;;;;;;;;11.70;99.90;;;;;;5111416;28;19931;-67
2022/06/05 03:14:15;;;;;;;;;;;11.70;99.90;;;;;;5111390;27;19927;-66
2022/06/05 03:16:40;;;;;;;;;;;11.80;99.90;;;;;;5111297;28;19967;-66
2022/06/05 03:19:06;;;;;;;;;;;11.80;99.90;;;;;;5111471;28;19986;-66
2022/06/05 03:21:35;;;;;;;;;;;11.80;99.90;;;;;;5111273;28;20349;-66
2022/06/05 03:24:01;;;;;;;;;;;11.80;99.90;;;;;;5112409;28;19965;-66
2022/06/05 03:26:27;;;;;;;;;;;11.90;99.90;;;;;;5111256;28;19923;-66
2022/06/05 03:28:52;;;;;;;;;;;11.90;99.90;;;;;;5110299;28;19942;-66
2022/06/05 03:31:18;;;;;;;;;;;11.90;99.90;;;;;;5111972;28;19986;-67
2022/06/05 03:33:43;;;;;;;;;;;11.90;99.90;;;;;;5112100;28;20363;-66
2022/06/05 03:36:10;;;;;;;;;;;11.90;99.90;;;;;;5112228;28;20098;-66
2022/06/05 03:38:36;;;;;;;;;;;11.90;99.90;;;;;;5110798;28;19920;-66
2022/06/05 03:41:01;;;;;;;;;;;12.00;99.90;;;;;;5111828;28;20026;-66
2022/06/05 03:43:27;;;;;;;;;;;12.00;99.90;;;;;;5112117;28;19920;-66
2022/06/05 03:46:02;;;;;;;;;;;12.00;99.90;;;;;;5110894;28;19969;-66
2022/06/05 03:48:28;;;;;;;;;;;12.00;99.90;;;;;;5111611;28;19930;-66
2022/06/05 03:50:53;;;;;;;;;;;12.10;99.90;;;;;;5112079;28;19920;-66
2022/06/05 03:53:19;;;;;;;;;;;12.00;99.90;;;;;;5112020;28;19977;-67
2022/06/05 03:55:44;;;;;;;;;;;12.00;99.90;;;;;;5111883;28;19938;-66
2022/06/05 03:58:10;;;;;;;;;;;12.10;99.90;;;;;;5111717;28;19988;-66
2022/06/05 04:00:35;;;;;;;;;;;12.20;99.90;;;;;;5111470;28;19923;-66
2022/06/05 04:03:01;;;;;;;;;;;12.20;99.90;;;;;;5111579;28;20456;-66
2022/06/05 04:05:26;;;;;;;;;;;12.30;99.90;;;;;;5111791;28;20006;-66
2022/06/05 04:07:52;;;;;;;;;;;12.30;99.90;;;;;;5111847;28;20295;-66
2022/06/05 04:10:18;;;;;;;;;;;12.30;99.90;;;;;;5111513;28;19919;-66
2022/06/05 04:12:44;;;;;;;;;;;12.30;99.90;;;;;;5110399;28;19924;-66
2022/06/05 04:15:11;;;;;;;;;;;12.30;99.90;;;;;;5111643;28;19920;-67
2022/06/05 04:17:36;;;;;;;;;;;12.30;99.90;;;;;;5111601;28;20410;-66
2022/06/05 04:20:02;;;;;;;;;;;12.40;99.90;;;;;;5111498;28;19924;-66
2022/06/05 04:22:28;;;;;;;;;;;12.40;99.90;;;;;;5111756;28;20006;-66
2022/06/05 04:24:53;;;;;;;;;;;12.60;99.90;;;;;;5111692;28;19978;-66
2022/06/05 04:27:19;;;;;;;;;;;12.60;99.90;;;;;;5111647;28;19924;-66
2022/06/05 04:29:44;;;;;;;;;;;12.70;99.90;;;;;;5111282;28;20624;-66
2022/06/05 04:32:10;;;;;;;;;;;12.80;99.90;;;;;;5111364;28;19943;-67
2022/06/05 04:34:35;;;;;;;;;;;12.90;99.90;;;;;;5111580;28;19951;-66
2022/06/05 04:37:01;;;;;;;;;;;13.10;99.90;;;;;;5111599;28;20472;-66
2022/06/05 04:39:26;;;;;;;;;;;13.20;99.90;;;;;;5111215;28;19928;-66
2022/06/05 04:41:52;;;;;;;;;;;13.20;99.90;;;;;;5112768;28;20273;-66
2022/06/05 04:44:18;;;;;;;;;;;13.30;99.90;;;;;;5114152;28;20011;-66
2022/06/05 04:46:44;;;;;;;;;;;13.40;99.90;;;;;;5114287;28;19919;-66
2022/06/05 04:49:10;;;;;;;;;;;13.60;99.90;;;;;;5115201;28;19930;-66
2022/06/05 04:51:36;;;;;;;;;;;13.70;99.90;;;;;;5114220;28;19926;-66
2022/06/05 04:54:02;;;;;;;;;;;13.80;99.90;;;;;;5115248;28;19926;-66
2022/06/05 04:56:28;;;;;;;;;;;14.00;99.90;;;;;;5115308;28;19919;-67
2022/06/05 04:58:54;;;;;;;;;;;14.10;99.90;;;;;;5114683;28;20026;-66
2022/06/05 05:01:27;;;;;;;;;;;14.10;99.90;;;;;;5115006;28;19943;-66
2022/06/05 05:03:53;;;;;;;;;;;14.10;99.90;;;;;;5115188;27;19916;-67
2022/06/05 05:06:19;;;;;;;;;;;14.10;99.90;;;;;;5115084;28;20399;-67
2022/06/05 05:08:44;;;;;;;;;;;14.00;99.90;;;;;;5114741;28;20018;-67
2022/06/05 05:11:10;;;;;;;;;;;14.10;99.90;;;;;;5114774;28;19945;-66
2022/06/05 05:13:36;;;;;;;;;;;14.10;99.90;;;;;;5114799;28;19963;-67
2022/06/05 05:16:02;;;;;;;;;;;14.10;99.90;;;;;;5114723;28;19923;-66
2022/06/05 05:18:27;;;;;;;;;;;14.10;99.90;;;;;;5114658;27;20406;-67
2022/06/05 05:20:53;;;;;;;;;;;14.20;99.90;;;;;;5114680;28;20015;-67
2022/06/05 05:23:19;;;;;;;;;;;14.20;99.90;;;;;;5114616;28;19920;-66
2022/06/05 05:25:46;;;;;;;;;;;14.30;99.90;;;;;;5114683;28;19923;-66
2022/06/05 05:28:11;;;;;;;;;;;14.30;99.90;;;;;;5114496;28;19920;-67
2022/06/05 05:30:37;;;;;;;;;;;14.40;99.90;;;;;;5114245;28;19926;-67
2022/06/05 05:33:03;;;;;;;;;;;14.40;99.90;;;;;;5114544;28;20010;-67
2022/06/05 05:35:28;;;;;;;;;;;14.40;99.90;;;;;;5114538;28;19920;-66
2022/06/05 05:37:54;;;;;;;;;;;14.30;99.90;;;;;;5114464;28;20104;-67
2022/06/05 05:43:03;;;;;;;;;;;14.40;99.90;;;;;;5114113;28;19919;-67
2022/06/05 05:45:29;;;;;;;;;;;14.40;99.90;;;;;;5114467;28;20288;-67
2022/06/05 05:47:54;;;;;;;;;;;14.50;99.90;;;;;;5114197;28;19931;-66
2022/06/05 05:50:20;;;;;;;;;;;14.50;99.90;;;;;;5113927;28;20016;-67
2022/06/05 05:52:45;;;;;;;;;;;14.50;99.90;;;;;;5113691;28;20367;-67
2022/06/05 05:55:12;;;;;;;;;;;14.60;99.90;;;;;;5114005;28;20493;-67
2022/06/05 05:57:37;;;;;;;;;;;14.60;99.90;;;;;;5113922;28;20352;-67
2022/06/05 06:00:04;;;;;;;;;;;14.70;99.90;;;;;;5113469;28;19931;-67
2022/06/05 06:02:30;;;;;;;;;;;14.70;99.90;;;;;;5113762;28;19924;-67
2022/06/05 06:04:55;;;;;;;;;;;14.70;99.90;;;;;;5113928;28;19920;-67
2022/06/05 06:07:21;;;;;;;;;;;14.70;99.90;;;;;;5113034;28;19950;-67
2022/06/05 06:09:47;;;;;;;;;;;14.80;99.90;;;;;;5113671;28;20350;-67
2022/06/05 06:12:12;;;;;;;;;;;14.80;99.90;;;;;;5113812;28;19950;-67
2022/06/05 06:14:38;;;;;;;;;;;14.90;99.90;;;;;;5114128;28;19920;-66
2022/06/05 06:17:04;;;;;;;;;;;14.90;99.90;;;;;;5113915;28;19963;-67
2022/06/05 06:19:30;;;;;;;;;;;15.00;99.90;;;;;;5112324;28;19963;-66
2022/06/05 06:21:55;;;;;;;;;;;15.00;99.90;;;;;;5113592;28;19920;-66
2022/06/05 06:24:21;;;;;;;;;;;15.00;99.90;;;;;;5113473;28;19927;-66
2022/06/05 06:26:46;;;;;;;;;;;15.10;99.90;;;;;;5113434;28;19919;-66
2022/06/05 06:29:12;;;;;;;;;;;15.10;99.90;;;;;;5111733;28;19919;-66
2022/06/05 06:31:38;;;;;;;;;;;15.20;99.90;;;;;;5112208;28;20356;-66
2022/06/05 06:34:04;;;;;;;;;;;15.20;99.90;;;;;;5113217;28;20394;-66
2022/06/05 06:36:30;;;;;;;;;;;15.40;99.90;;;;;;5113210;28;19924;-66
2022/06/05 06:38:56;;;;;;;;;;;15.50;99.90;;;;;;5112845;28;20378;-66
2022/06/05 06:41:21;;;;;;;;;;;15.50;99.90;;;;;;5112910;28;20422;-66
2022/06/05 06:43:47;;;;;;;;;;;15.70;99.90;;;;;;5113227;28;19920;-66
2022/06/05 06:46:14;;;;;;;;;;;15.70;99.90;;;;;;5113120;28;19927;-66
2022/06/05 06:48:39;;;;;;;;;;;15.80;99.90;;;;;;5112700;28;19924;-66
2022/06/05 06:51:06;;;;;;;;;;;16.00;99.90;;;;;;5111815;28;19920;-66
2022/06/05 06:53:32;;;;;;;;;;;16.10;99.90;;;;;;5111885;28;19919;-66
2022/06/05 06:55:58;;;;;;;;;;;16.20;99.90;;;;;;5112738;28;19920;-67
2022/06/05 06:58:23;;;;;;;;;;;16.30;99.90;;;;;;5112609;28;20143;-67
2022/06/05 07:00:49;;;;;;;;;;;16.40;99.90;;;;;;5112668;28;19935;-66
2022/06/05 07:03:15;;;;;;;;;;;16.60;99.90;;;;;;5112865;28;19930;-66
2022/06/05 07:05:40;;;;;;;;;;;16.70;99.90;;;;;;5112005;28;19943;-67
2022/06/05 07:08:07;;;;;;;;;;;16.80;99.90;;;;;;5112523;28;19924;-66
2022/06/05 07:10:32;;;;;;;;;;;16.90;99.90;;;;;;5111319;28;19965;-66
2022/06/05 07:12:58;;;;;;;;;;;16.90;99.90;;;;;;5112541;28;19923;-67
2022/06/05 07:15:23;;;;;;;;;;;16.90;99.90;;;;;;5112608;28;19920;-66
2022/06/05 07:17:49;;;;;;;;;;;17.00;99.90;;;;;;5112550;28;19924;-67
2022/06/05 07:20:14;;;;;;;;;;;17.10;99.90;;;;;;5112095;28;19954;-67
2022/06/05 07:22:40;;;;;;;;;;;17.20;99.90;;;;;;5112319;28;19919;-67
2022/06/05 07:25:06;;;;;;;;;;;17.30;99.90;;;;;;5111024;28;19919;-67
2022/06/05 07:27:32;;;;;;;;;;;17.40;99.90;;;;;;5112334;28;19919;-67
2022/06/05 07:29:57;;;;;;;;;;;17.50;99.90;;;;;;5111895;28;20491;-67
2022/06/05 07:32:23;;;;;;;;;;;17.50;99.90;;;;;;5112226;28;19920;-67
2022/06/05 07:34:49;;;;;;;;;;;17.50;99.90;;;;;;5111015;28;19920;-67
2022/06/05 07:37:15;;;;;;;;;;;17.60;99.90;;;;;;5111037;28;19931;-67
2022/06/05 07:39:41;;;;;;;;;;;17.80;99.90;;;;;;5110478;28;20410;-67
2022/06/05 07:42:06;;;;;;;;;;;17.90;99.90;;;;;;5112261;28;19974;-67
2022/06/05 07:44:32;;;;;;;;;;;17.90;99.90;;;;;;5111959;28;19920;-66
2022/06/05 07:46:58;;;;;;;;;;;18.00;99.90;;;;;;5112127;28;19924;-67
2022/06/05 07:49:23;;;;;;;;;;;18.10;99.90;;;;;;5111637;28;20419;-67
2022/06/05 07:54:37;;;;;;;;;;;18.20;99.90;;;;;;5112403;28;19973;-67
2022/06/05 07:57:05;;;;;;;;;;;18.40;99.90;;;;;;5112230;28;19920;-67
2022/06/05 07:59:32;;;;;;;;;;;18.40;99.90;;;;;;5111557;28;19930;-67
2022/06/05 08:01:59;;;;;;;;;;;18.40;99.90;;;;;;5111978;28;19920;-67
2022/06/05 08:04:25;;;;;;;;;;;18.50;99.90;;;;;;5112109;28;19971;-67
2022/06/05 08:06:51;;;;;;;;;;;18.50;99.90;;;;;;5110498;28;20636;-67
2022/06/05 08:09:17;;;;;;;;;;;18.60;99.90;;;;;;5111688;28;20006;-67
2022/06/05 08:11:45;;;;;;;;;;;18.70;99.90;;;;;;5111589;28;20383;-66
2022/06/05 08:14:11;;;;;;;;;;;18.70;99.90;;;;;;5111753;28;19920;-67
2022/06/05 08:16:39;;;;;;;;;;;18.80;99.90;;;;;;5114654;28;19923;-66
2022/06/05 08:19:05;;;;;;;;;;;18.80;99.90;;;;;;5115641;27;20296;-67
2022/06/05 08:21:31;;;;;;;;;;;18.90;99.90;;;;;;5116026;28;19972;-67
2022/06/05 08:23:56;;;;;;;;;;;19.00;99.90;;;;;;5115740;28;20272;-67
2022/06/05 08:26:22;;;;;;;;;;;19.10;99.90;;;;;;5115857;28;19999;-67
2022/06/05 08:28:47;;;;;;;;;;;19.10;99.90;;;;;;5115509;28;20426;-67
2022/06/05 08:31:13;;;;;;;;;;;19.10;99.90;;;;;;5115506;28;19920;-66
2022/06/05 08:33:38;;;;;;;;;;;19.20;99.90;;;;;;5115543;28;19927;-67
2022/06/05 08:36:04;;;;;;;;;;;19.30;99.90;;;;;;5115428;28;19970;-67
2022/06/05 08:41:29;;;;;;;;;;;19.50;99.90;;;;;;5115406;28;19928;-67
2022/06/05 08:44:13;;;;;;;;;;;19.60;99.90;;;;;;5115378;28;19924;-67
2022/06/05 08:46:44;;;;;;;;;;;19.60;99.90;;;;;;5115568;28;19973;-67
2022/06/05 08:49:12;;;;;;;;;;;19.70;99.90;;;;;;5115023;28;19926;-67
2022/06/05 08:51:48;;;;;;;;;;;19.90;99.90;;;;;;5115353;28;20307;-67
2022/06/05 08:54:19;;;;;;;;;;;20.00;99.90;;;;;;5115316;27;19955;-67
2022/06/05 08:57:07;;;;;;;;;;;20.00;99.90;;;;;;5115125;28;20303;-67
2022/06/05 08:59:45;;;;;;;;;;;20.00;99.90;;;;;;5114856;28;19924;-67
2022/06/05 09:02:23;;;;;;;;;;;20.20;99.90;;;;;;5115149;28;19923;-67
2022/06/05 09:04:54;;;;;;;;;;;20.20;99.90;;;;;;5114994;28;19919;-68
2022/06/05 09:07:26;;;;;;;;;;;20.20;99.90;;;;;;5114884;28;19924;-67
2022/06/05 09:09:54;;;;;;;;;;;20.30;99.90;;;;;;5114818;28;19920;-67
2022/06/05 09:12:29;;;;;;;;;;;20.30;99.90;;;;;;5114829;28;19973;-67
2022/06/05 09:14:58;;;;;;;;;;;20.30;99.90;;;;;;5114870;28;19923;-67
2022/06/05 09:17:25;;;;;;;;;;;20.40;99.90;;;;;;5114981;28;19927;-67
2022/06/05 09:19:51;;;;;;;;;;;20.50;99.90;;;;;;5114374;28;19924;-67
2022/06/05 09:22:29;;;;;;;;;;;20.50;99.90;;;;;;5114778;28;19924;-67
2022/06/05 09:25:12;;;;;;;;;;;20.60;99.90;;;;;;5114826;28;20303;-67
2022/06/05 09:27:40;;;;;;;;;;;20.70;99.90;;;;;;5113737;27;19967;-67
2022/06/05 09:30:16;;;;;;;;;;;20.70;99.90;;;;;;5114153;28;19923;-67
2022/06/05 09:32:45;;;;;;;;;;;20.80;99.90;;;;;;5114805;28;19959;-67
2022/06/05 09:35:13;;;;;;;;;;;20.80;99.90;;;;;;5114515;28;19926;-67
2022/06/05 09:37:52;;;;;;;;;;;20.90;99.90;;;;;;5114406;28;20317;-67
2022/06/05 09:40:20;;;;;;;;;;;21.10;99.90;;;;;;5113976;28;19931;-67
2022/06/05 09:42:51;;;;;;;;;;;21.10;99.90;;;;;;5114411;28;19958;-67
2022/06/05 09:45:34;;;;;;;;;;;21.10;99.90;;;;;;5114494;28;19924;-67
2022/06/05 09:48:09;;;;;;;;;;;21.10;99.90;;;;;;5114310;28;19930;-67
2022/06/05 09:50:34;;;;;;;;;;;21.20;99.90;;;;;;5113940;28;20264;-67
2022/06/05 09:53:00;;;;;;;;;;;21.20;99.90;;;;;;5113962;28;19926;-67
2022/06/05 09:55:44;;;;;;;;;;;21.30;99.90;;;;;;5114200;28;19988;-67
2022/06/05 09:58:24;;;;;;;;;;;21.30;99.90;;;;;;5114058;28;19992;-67
2022/06/05 10:01:13;;;;;;;;;;;21.30;99.90;;;;;;5113886;28;19928;-67
2022/06/05 10:03:42;;;;;;;;;;;21.30;99.90;;;;;;5102888;28;19920;-67
2022/06/05 10:06:17;;;;;;;;;;;21.30;99.90;;;;;;5114002;28;20311;-66
2022/06/05 10:08:44;;;;;;;;;;;21.20;99.90;;;;;;5113692;28;20329;-67
2022/06/05 10:11:25;;;;;;;;;;;21.30;99.90;;;;;;5113727;28;19962;-67
2022/06/05 10:14:07;;;;;;;;;;;21.30;99.90;;;;;;5113621;28;19923;-67
2022/06/05 10:16:49;;;;;;;;;;;21.30;99.90;;;;;;5113854;28;19920;-67
2022/06/05 10:19:46;;;;;;;;;;;21.30;99.90;;;;;;5113378;28;19927;-68
2022/06/05 10:22:19;;;;;;;;;;;21.40;99.90;;;;;;5068014;28;19920;-67
2022/06/05 10:25:14;;;;;;;;;;;21.50;99.90;;;;;;5113526;28;20449;-67
2022/06/05 10:27:46;;;;;;;;;;;21.50;99.90;;;;;;5113611;28;19930;-66
2022/06/05 10:30:15;;;;;;;;;;;21.70;99.90;;;;;;5113206;28;19920;-67
2022/06/05 10:32:46;;;;;;;;;;;21.80;99.90;;;;;;5113169;28;19923;-68
2022/06/05 10:35:16;;;;;;;;;;;21.80;99.90;;;;;;5113360;28;19958;-67
2022/06/05 10:38:04;;;;;;;;;;;21.80;99.90;;;;;;5113235;28;20406;-67
2022/06/05 10:40:39;;;;;;;;;;;21.80;99.90;;;;;;5111912;28;20425;-67
2022/06/05 10:43:13;;;;;;;;;;;21.80;99.90;;;;;;5112999;28;20420;-67
2022/06/05 10:45:57;;;;;;;;;;;21.80;99.90;;;;;;5113262;28;19998;-67
2022/06/05 10:48:41;;;;;;;;;;;21.80;99.90;;;;;;5113006;28;19990;-67
2022/06/05 10:51:27;;;;;;;;;;;21.90;99.90;;;;;;5112958;28;20284;-68
2022/06/05 10:54:11;;;;;;;;;;;21.90;99.90;;;;;;5112874;27;19919;-68
2022/06/05 10:56:40;;;;;;;;;;;21.80;99.90;;;;;;5113013;28;20516;-67
2022/06/05 10:59:16;;;;;;;;;;;21.80;99.90;;;;;;5112423;28;20226;-67
2022/06/05 11:02:10;;;;;;;;;;;21.80;99.90;;;;;;5112728;28;20371;-67
2022/06/05 11:04:46;;;;;;;;;;;21.80;99.90;;;;;;5112923;28;20014;-67
2022/06/05 11:07:12;;;;;;;;;;;21.80;99.90;;;;;;5111445;28;19920;-67
2022/06/05 11:09:45;;;;;;;;;;;21.80;99.90;;;;;;5112334;28;19920;-67
2022/06/05 11:15:09;;;;;;;;;;;21.70;99.90;;;;;;5112652;28;20014;-67
2022/06/05 11:17:43;;;;;;;;;;;21.80;99.90;;;;;;5111558;28;19969;-67
2022/06/05 11:20:13;;;;;;;;;;;21.80;99.90;;;;;;5112215;28;20303;-67
2022/06/05 11:22:40;;;;;;;;;;;21.80;99.90;;;;;;5112286;28;19920;-67
2022/06/05 11:25:29;;;;;;;;;;;21.90;99.90;;;;;;5112439;28;19923;-67
2022/06/05 11:28:11;;;;;;;;;;;21.90;99.90;;;;;;5073830;28;19924;-67
2022/06/05 11:30:43;;;;;;;;;;;21.90;99.90;;;;;;5112061;28;19974;-67
2022/06/05 11:33:26;;;;;;;;;;;21.90;99.90;;;;;;5112045;28;19927;-67
2022/06/05 11:36:12;;;;;;;;;;;21.90;99.90;;;;;;5112290;28;19920;-67
2022/06/05 11:38:44;;;;;;;;;;;21.80;99.90;;;;;;5111822;28;19927;-67
2022/06/05 11:41:19;;;;;;;;;;;21.90;99.90;;;;;;5112025;28;20028;-67
2022/06/05 11:43:45;;;;;;;;;;;21.90;99.90;;;;;;5112344;28;20019;-67
2022/06/05 11:46:23;;;;;;;;;;;21.90;99.90;;;;;;5110712;28;20376;-67
2022/06/05 11:48:56;;;;;;;;;;;21.90;99.90;;;;;;5110393;28;19920;-66
2022/06/05 11:51:21;;;;;;;;;;;22.00;99.90;;;;;;5111651;28;19927;-67
2022/06/05 11:53:56;;;;;;;;;;;22.00;99.90;;;;;;5111847;28;20317;-67
2022/06/05 11:56:30;;;;;;;;;;;22.00;99.90;;;;;;5112065;28;20015;-67
2022/06/05 11:59:03;;;;;;;;;;;22.00;99.90;;;;;;5111599;28;20031;-67
2022/06/05 12:01:34;;;;;;;;;;;22.00;99.90;;;;;;5111151;28;20423;-68
2022/06/05 12:04:05;;;;;;;;;;;22.00;99.90;;;;;;5111761;28;19971;-67
2022/06/05 12:06:36;;;;;;;;;;;22.00;99.90;;;;;;5111936;28;20283;-67
2022/06/05 12:09:04;;;;;;;;;;;22.00;99.90;;;;;;5111521;28;19926;-67
2022/06/05 12:11:33;;;;;;;;;;;22.00;99.90;;;;;;5111813;28;19930;-67
2022/06/05 12:14:17;;;;;;;;;;;22.00;99.90;;;;;;5111731;28;20367;-67
2022/06/05 12:17:02;;;;;;;;;;;22.00;99.90;;;;;;5111747;28;20397;-67
2022/06/05 12:19:28;;;;;;;;;;;22.00;99.90;;;;;;5111523;28;19931;-67
2022/06/05 12:21:53;;;;;;;;;;;22.10;99.90;;;;;;5111656;28;19920;-67
2022/06/05 12:24:22;;;;;;;;;;;22.10;99.90;;;;;;5111640;28;19967;-67
2022/06/05 12:26:57;;;;;;;;;;;22.00;99.90;;;;;;5111686;28;19920;-67
2022/06/05 12:29:41;;;;;;;;;;;22.00;99.90;;;;;;5111630;28;19931;-67
2022/06/05 12:32:07;;;;;;;;;;;22.10;99.90;;;;;;5111578;28;19931;-67
2022/06/05 12:34:45;;;;;;;;;;;22.10;99.90;;;;;;5111582;28;20014;-67
2022/06/05 12:37:19;;;;;;;;;;;22.10;99.90;;;;;;5111518;28;19927;-67
2022/06/05 12:39:46;;;;;;;;;;;22.10;99.90;;;;;;5111070;28;19928;-67
2022/06/05 12:42:27;;;;;;;;;;;22.10;99.90;;;;;;5111500;28;19927;-67
2022/06/05 12:44:57;;;;;;;;;;;22.20;99.90;;;;;;5111448;28;19920;-67
2022/06/05 12:47:23;;;;;;;;;;;22.20;99.90;;;;;;5111402;28;20449;-67
2022/06/05 12:49:51;;;;;;;;;;;22.30;99.90;;;;;;5110967;28;19920;-68
2022/06/05 12:52:24;;;;;;;;;;;22.30;99.90;;;;;;5111050;28;19923;-67
2022/06/05 12:54:55;;;;;;;;;;;22.40;99.90;;;;;;5111401;28;19971;-67
2022/06/05 12:57:24;;;;;;;;;;;22.50;99.90;;;;;;5111368;28;19973;-67
2022/06/05 12:59:57;;;;;;;;;;;22.50;99.90;;;;;;5110827;28;19931;-67
2022/06/05 13:02:26;;;;;;;;;;;22.50;99.90;;;;;;5111763;28;20553;-67
2022/06/05 13:04:57;;;;;;;;;;;22.50;99.90;;;;;;5113708;28;19978;-67
2022/06/05 13:07:22;;;;;;;;;;;22.60;99.90;;;;;;5114799;28;19959;-67
2022/06/05 13:09:51;;;;;;;;;;;22.70;99.90;;;;;;5113555;28;19962;-67
2022/06/05 13:12:17;;;;;;;;;;;22.70;99.90;;;;;;5114831;28;19919;-67
2022/06/05 13:15:00;;;;;;;;;;;22.70;99.90;;;;;;5114824;28;19941;-67
2022/06/05 13:17:45;;;;;;;;;;;22.70;99.90;;;;;;5115035;28;20302;-67
2022/06/05 13:20:15;;;;;;;;;;;22.70;99.90;;;;;;5114551;28;20280;-67
2022/06/05 13:22:59;;;;;;;;;;;22.80;99.90;;;;;;5114670;28;19919;-67
2022/06/05 13:25:35;;;;;;;;;;;22.70;99.90;;;;;;5114608;28;19924;-67
2022/06/05 13:28:20;;;;;;;;;;;22.80;99.90;;;;;;5114864;27;20274;-67
2022/06/05 13:30:45;;;;;;;;;;;22.80;99.90;;;;;;5114552;28;19924;-67
2022/06/05 13:33:15;;;;;;;;;;;22.90;99.90;;;;;;5114423;28;20403;-67
2022/06/05 13:35:43;;;;;;;;;;;22.90;99.90;;;;;;5114414;28;19923;-67
2022/06/05 13:38:19;;;;;;;;;;;22.90;99.90;;;;;;5114550;27;19920;-67
2022/06/05 13:41:03;;;;;;;;;;;22.90;99.90;;;;;;5114361;28;19992;-67
2022/06/05 13:43:38;;;;;;;;;;;22.90;99.90;;;;;;5114433;28;19927;-66
2022/06/05 13:46:21;;;;;;;;;;;23.00;99.90;;;;;;5114365;28;20383;-68
2022/06/05 13:49:04;;;;;;;;;;;22.90;99.90;;;;;;5114186;28;19928;-66
2022/06/05 13:51:32;;;;;;;;;;;23.00;99.90;;;;;;5114122;28;19924;-67
2022/06/05 13:54:00;;;;;;;;;;;22.90;99.90;;;;;;5114285;28;19981;-67
2022/06/05 13:56:33;;;;;;;;;;;22.90;99.90;;;;;;5114099;28;19923;-67
2022/06/05 13:59:05;;;;;;;;;;;22.90;99.90;;;;;;5113583;28;19927;-67
2022/06/05 14:01:34;;;;;;;;;;;22.90;99.90;;;;;;5114083;28;19930;-68
2022/06/05 14:04:20;;;;;;;;;;;22.90;99.90;;;;;;5114120;28;19920;-67
2022/06/05 14:07:10;;;;;;;;;;;22.90;99.90;;;;;;5112875;28;20012;-67
2022/06/05 14:09:43;;;;;;;;;;;22.80;99.90;;;;;;5113543;28;20515;-68
2022/06/05 14:12:20;;;;;;;;;;;22.70;99.90;;;;;;5113920;28;19919;-67
2022/06/05 14:14:46;;;;;;;;;;;22.70;99.90;;;;;;5113566;28;20623;-67
2022/06/05 14:17:19;;;;;;;;;;;22.60;99.90;;;;;;5113606;28;19923;-67
2022/06/05 14:19:51;;;;;;;;;;;22.50;99.90;;;;;;5113106;28;20344;-67
2022/06/05 14:22:20;;;;;;;;;;;22.40;99.90;;;;;;5113537;28;20391;-67
2022/06/05 14:24:46;;;;;;;;;;;22.30;99.90;;;;;;5113723;28;20299;-67
2022/06/05 14:27:14;;;;;;;;;;;22.20;99.90;;;;;;5113520;28;19927;-67
2022/06/05 14:29:41;;;;;;;;;;;22.10;99.90;;;;;;5113234;28;19923;-68
2022/06/05 14:32:08;;;;;;;;;;;22.00;99.90;;;;;;5113334;28;20018;-67
2022/06/05 14:34:38;;;;;;;;;;;21.90;99.90;;;;;;5113472;28;19920;-67
2022/06/05 14:37:22;;;;;;;;;;;21.80;99.90;;;;;;5113471;28;19920;-67
2022/06/05 14:39:48;;;;;;;;;;;21.70;99.90;;;;;;5112873;28;19977;-67
2022/06/05 14:42:33;;;;;;;;;;;21.60;99.90;;;;;;5113178;28;20402;-67
2022/06/05 14:45:04;;;;;;;;;;;21.50;99.90;;;;;;5113347;28;19967;-67
2022/06/05 14:47:38;;;;;;;;;;;21.40;99.90;;;;;;5113241;28;19994;-67
2022/06/05 14:50:06;;;;;;;;;;;21.40;99.90;;;;;;5111341;28;19949;-66